Time;durP1;ratioP1;P1;durP2;ratioP2;P2;SDS_P1;SDS_P2;PMS_P1;PMS_P2;Temp;Humidity;BMP_temperature;BMP_pressure;BME280_temperature;BME280_humidity;BME280_pressure;Samples;Min_cycle;Max_cycle;Signal;HPM_P1;HPM_P2
2021/06/19 00:00:31;;;;;;;;;;;;;;;20.54;64.18;100144.83;1635301;87;20145;-86
2021/06/19 00:02:59;;;;;;;;;;;;;;;20.51;64.02;100142.52;1641015;86;20124;-86
2021/06/19 00:05:25;;;;;;;;;;;;;;;20.49;64.44;100145.83;1627426;87;20143;-87
2021/06/19 00:07:51;;;;;;;;;;;;;;;20.47;64.53;100147.88;1626606;88;20465;-86
2021/06/19 00:10:18;;;;;;;;;;;;;;;20.43;64.58;100143.87;1639503;87;20111;-86
2021/06/19 00:12:45;;;;;;;;;;;;;;;20.40;64.65;100142.92;1654675;87;20134;-86
2021/06/19 00:15:14;;;;;;;;;;;;;;;20.37;64.71;100146.78;1654702;86;20388;-86
2021/06/19 00:17:40;;;;;;;;;;;;;;;20.34;64.88;100147.66;1654238;86;20172;-87
2021/06/19 00:20:09;;;;;;;;;;;;;;;20.29;64.96;100152.19;1653419;87;20129;-86
2021/06/19 00:22:35;;;;;;;;;;;;;;;20.26;65.03;100152.54;1648255;86;20433;-86
2021/06/19 00:25:01;;;;;;;;;;;;;;;20.23;65.30;100153.41;1627024;88;20132;-86
2021/06/19 00:27:27;;;;;;;;;;;;;;;20.19;65.45;100147.58;1633721;87;20124;-86
2021/06/19 00:29:52;;;;;;;;;;;;;;;20.17;65.45;100145.59;1626652;87;20127;-88
2021/06/19 00:32:18;;;;;;;;;;;;;;;20.10;65.40;100145.48;1639382;87;20438;-88
2021/06/19 00:34:44;;;;;;;;;;;;;;;20.06;65.64;100146.81;1627050;87;20132;-87
2021/06/19 00:37:11;;;;;;;;;;;;;;;20.02;65.68;100144.17;1626621;87;20127;-88
2021/06/19 00:39:37;;;;;;;;;;;;;;;20.00;65.79;100144.84;1637036;87;20098;-87
2021/06/19 00:42:03;;;;;;;;;;;;;;;19.97;65.95;100138.50;1654638;86;20503;-86
2021/06/19 00:44:29;;;;;;;;;;;;;;;19.95;65.97;100148.58;1654836;87;20184;-88
2021/06/19 00:46:56;;;;;;;;;;;;;;;19.92;66.03;100148.92;1654373;87;20434;-87
2021/06/19 00:49:22;;;;;;;;;;;;;;;19.89;66.15;100155.97;1654602;87;20158;-87
2021/06/19 00:51:48;;;;;;;;;;;;;;;19.86;66.18;100153.13;1653803;87;20133;-88
2021/06/19 00:54:15;;;;;;;;;;;;;;;19.82;66.44;100153.16;1654463;87;20136;-88
2021/06/19 00:56:41;;;;;;;;;;;;;;;19.80;66.29;100154.34;1654622;86;20593;-88
2021/06/19 00:59:09;;;;;;;;;;;;;;;19.76;66.69;100151.18;1632884;86;20414;-88
2021/06/19 01:01:36;;;;;;;;;;;;;;;19.72;66.58;100153.05;1632209;87;20140;-87
2021/06/19 01:04:03;;;;;;;;;;;;;;;19.72;66.84;100149.04;1651961;86;20172;-88
2021/06/19 01:06:29;;;;;;;;;;;;;;;19.67;66.70;100147.70;1654542;87;20117;-88
2021/06/19 01:08:55;;;;;;;;;;;;;;;19.65;66.83;100146.23;1651319;86;20431;-88
2021/06/19 01:11:23;;;;;;;;;;;;;;;19.63;67.22;100147.72;1645768;87;20122;-88
2021/06/19 01:13:50;;;;;;;;;;;;;;;19.60;67.45;100149.88;1654523;86;20101;-88
2021/06/19 01:16:20;;;;;;;;;;;;;;;19.58;67.35;100151.41;1654148;86;20137;-88
2021/06/19 01:18:47;;;;;;;;;;;;;;;19.56;67.26;100153.41;1650470;86;20142;-88
2021/06/19 01:21:21;;;;;;;;;;;;;;;19.55;67.98;100151.75;1643493;86;20157;-88
2021/06/19 01:23:48;;;;;;;;;;;;;;;19.50;67.64;100155.95;1646387;86;20125;-90
2021/06/19 01:26:14;;;;;;;;;;;;;;;19.47;67.45;100154.45;1641553;87;20161;-90
2021/06/19 01:28:41;;;;;;;;;;;;;;;19.44;67.52;100150.27;1641981;87;20435;-89
2021/06/19 01:31:07;;;;;;;;;;;;;;;19.43;67.73;100150.45;1640253;86;20331;-90
2021/06/19 01:33:33;;;;;;;;;;;;;;;19.41;68.11;100152.46;1637971;87;20137;-89
2021/06/19 01:35:58;;;;;;;;;;;;;;;19.36;67.96;100154.33;1654773;86;20417;-90
2021/06/19 01:38:24;;;;;;;;;;;;;;;19.32;68.17;100153.02;1629919;86;20143;-90
2021/06/19 01:40:50;;;;;;;;;;;;;;;19.30;68.24;100158.20;1650820;87;20127;-90
2021/06/19 01:43:16;;;;;;;;;;;;;;;19.27;68.25;100154.02;1642310;87;20128;-90
2021/06/19 01:45:41;;;;;;;;;;;;;;;19.26;68.43;100159.05;1626832;88;20135;-90
2021/06/19 01:48:08;;;;;;;;;;;;;;;19.24;68.41;100168.23;1626798;87;20135;-90
2021/06/19 01:50:34;;;;;;;;;;;;;;;19.20;68.95;100171.25;1640630;87;20125;-90
2021/06/19 01:53:01;;;;;;;;;;;;;;;19.19;68.58;100170.10;1654471;86;20191;-89
2021/06/19 01:55:27;;;;;;;;;;;;;;;19.16;68.74;100166.43;1654636;87;20142;-90
2021/06/19 01:57:54;;;;;;;;;;;;;;;19.13;68.95;100162.76;1654015;86;20549;-89
2021/06/19 02:00:23;;;;;;;;;;;;;;;19.11;68.92;100167.43;1654442;86;20113;-90
2021/06/19 02:02:49;;;;;;;;;;;;;;;19.09;69.23;100162.77;1652732;87;20136;-90
2021/06/19 02:05:15;;;;;;;;;;;;;;;19.06;69.24;100155.92;1645176;86;20131;-90
2021/06/19 02:07:59;;;;;;;;;;;;;;;19.03;69.12;100154.92;1639621;87;20133;-89
2021/06/19 02:10:28;;;;;;;;;;;;;;;19.02;69.33;100161.77;1654350;86;20399;-90
2021/06/19 02:12:54;;;;;;;;;;;;;;;19.00;69.44;100164.62;1654387;86;20455;-90
2021/06/19 02:15:21;;;;;;;;;;;;;;;18.97;69.16;100159.61;1652568;86;20121;-91
2021/06/19 02:17:47;;;;;;;;;;;;;;;18.94;68.85;100163.95;1654259;86;20137;-90
2021/06/19 02:20:15;;;;;;;;;;;;;;;18.91;69.32;100161.62;1626759;87;20312;-90
2021/06/19 02:22:41;;;;;;;;;;;;;;;18.89;69.28;100164.47;1632213;86;20140;-90
2021/06/19 02:25:10;;;;;;;;;;;;;;;18.88;69.35;100160.11;1654662;86;20168;-91
2021/06/19 02:27:36;;;;;;;;;;;;;;;18.89;69.63;100154.29;1654583;86;20136;-88
2021/06/19 02:30:04;;;;;;;;;;;;;;;18.89;69.74;100164.98;1654822;86;20141;-89
2021/06/19 02:32:30;;;;;;;;;;;;;;;18.87;69.74;100158.45;1653702;86;20181;-89
2021/06/19 02:34:55;;;;;;;;;;;;;;;18.86;69.83;100164.81;1643584;87;20118;-88
2021/06/19 02:37:21;;;;;;;;;;;;;;;18.85;69.37;100161.78;1654779;86;20387;-88
2021/06/19 02:39:47;;;;;;;;;;;;;;;18.84;69.88;100161.97;1649850;86;20165;-88
2021/06/19 02:42:13;;;;;;;;;;;;;;;18.83;69.84;100166.48;1631106;87;20149;-88
2021/06/19 02:44:38;;;;;;;;;;;;;;;18.82;69.97;100163.96;1654891;86;20638;-88
2021/06/19 02:47:04;;;;;;;;;;;;;;;18.79;70.45;100163.82;1654760;86;20174;-89
2021/06/19 02:49:30;;;;;;;;;;;;;;;18.77;70.12;100156.97;1654563;86;20144;-88
2021/06/19 02:51:57;;;;;;;;;;;;;;;18.76;70.41;100160.14;1654679;86;20141;-88
2021/06/19 02:54:23;;;;;;;;;;;;;;;18.73;70.67;100157.30;1654307;86;20165;-88
2021/06/19 02:56:48;;;;;;;;;;;;;;;18.73;70.68;100157.80;1654558;86;20145;-88
2021/06/19 02:59:14;;;;;;;;;;;;;;;18.71;70.81;100155.77;1654905;87;20136;-89
2021/06/19 03:01:40;;;;;;;;;;;;;;;18.68;70.86;100160.94;1645357;86;20457;-88
2021/06/19 03:04:05;;;;;;;;;;;;;;;18.66;70.81;100157.61;1648966;87;20113;-88
2021/06/19 03:06:31;;;;;;;;;;;;;;;18.64;70.97;100155.59;1654792;86;20145;-88
2021/06/19 03:08:57;;;;;;;;;;;;;;;18.62;70.84;100156.25;1654702;86;20085;-89
2021/06/19 03:11:23;;;;;;;;;;;;;;;18.61;70.89;100156.44;1633089;86;20151;-89
2021/06/19 03:13:48;;;;;;;;;;;;;;;18.60;71.16;100156.94;1654632;87;20102;-89
2021/06/19 03:16:14;;;;;;;;;;;;;;;18.59;71.09;100155.28;1640337;87;20107;-88
2021/06/19 03:18:40;;;;;;;;;;;;;;;18.58;70.97;100150.09;1649417;87;20504;-89
2021/06/19 03:21:06;;;;;;;;;;;;;;;18.60;70.98;100150.77;1654939;86;20136;-89
2021/06/19 03:23:32;;;;;;;;;;;;;;;18.58;71.15;100152.25;1654444;86;20169;-89
2021/06/19 03:25:57;;;;;;;;;;;;;;;18.59;71.54;100155.28;1654872;86;20139;-88
2021/06/19 03:28:24;;;;;;;;;;;;;;;18.59;71.59;100149.08;1654712;87;20134;-89
2021/06/19 03:30:50;;;;;;;;;;;;;;;18.60;71.23;100147.59;1650104;86;20095;-89
2021/06/19 03:33:17;;;;;;;;;;;;;;;18.61;71.26;100147.91;1626785;87;20171;-89
2021/06/19 03:35:44;;;;;;;;;;;;;;;18.62;71.40;100144.23;1650306;87;20534;-89
2021/06/19 03:38:10;;;;;;;;;;;;;;;18.62;71.64;100138.89;1654755;86;20110;-89
2021/06/19 03:40:37;;;;;;;;;;;;;;;18.61;71.62;100135.89;1654344;87;20125;-89
2021/06/19 03:43:03;;;;;;;;;;;;;;;18.64;71.67;100138.73;1654619;86;20108;-89
2021/06/19 03:45:31;;;;;;;;;;;;;;;18.65;71.88;100136.39;1654841;86;20137;-88
2021/06/19 03:47:58;;;;;;;;;;;;;;;18.66;71.76;100133.56;1654527;86;20150;-88
2021/06/19 03:50:26;;;;;;;;;;;;;;;18.68;71.88;100139.55;1654119;86;20165;-89
2021/06/19 03:52:53;;;;;;;;;;;;;;;18.70;72.02;100137.56;1649177;86;20415;-89
2021/06/19 03:55:19;;;;;;;;;;;;;;;18.72;72.01;100140.94;1654590;86;20149;-89
2021/06/19 03:57:44;;;;;;;;;;;;;;;18.76;72.06;100145.45;1647081;87;20128;-88
2021/06/19 04:00:13;;;;;;;;;;;;;;;18.79;72.19;100142.91;1627060;87;20136;-88
2021/06/19 04:02:39;;;;;;;;;;;;;;;18.82;72.48;100139.91;1628429;87;20173;-88
2021/06/19 04:05:06;;;;;;;;;;;;;;;18.84;72.53;100140.58;1641731;87;20129;-88
2021/06/19 04:07:32;;;;;;;;;;;;;;;18.87;72.59;100146.42;1654467;86;20164;-88
2021/06/19 04:09:58;;;;;;;;;;;;;;;18.90;72.28;100142.58;1654954;86;20148;-88
2021/06/19 04:12:23;;;;;;;;;;;;;;;18.93;72.61;100150.27;1631148;86;20127;-88
2021/06/19 04:14:50;;;;;;;;;;;;;;;18.98;72.58;100149.23;1627024;87;20100;-88
2021/06/19 04:17:16;;;;;;;;;;;;;;;19.00;72.61;100148.58;1626810;87;20432;-88
2021/06/19 04:19:43;;;;;;;;;;;;;;;19.02;72.74;100153.27;1626837;88;20127;-88
2021/06/19 04:22:09;;;;;;;;;;;;;;;19.05;72.62;100156.08;1650732;87;20470;-88
2021/06/19 04:24:35;;;;;;;;;;;;;;;19.09;72.84;100157.42;1637316;86;20104;-88
2021/06/19 04:27:02;;;;;;;;;;;;;;;19.12;72.99;100152.57;1654516;87;20139;-88
2021/06/19 04:29:30;;;;;;;;;;;;;;;19.16;73.07;100148.54;1645330;86;20425;-88
2021/06/19 04:31:56;;;;;;;;;;;;;;;19.20;73.14;100145.84;1636018;87;20469;-88
2021/06/19 04:34:22;;;;;;;;;;;;;;;19.24;73.20;100148.18;1650158;87;20141;-88
2021/06/19 04:36:49;;;;;;;;;;;;;;;19.28;73.30;100146.34;1631978;86;20131;-88
2021/06/19 04:39:14;;;;;;;;;;;;;;;19.32;73.28;100146.83;1654888;87;20135;-87
2021/06/19 04:45:11;;;;;;;;;;;;;;;19.40;73.32;100148.95;1626923;87;20151;-88
2021/06/19 04:46:47;;;;;;;;;;;;;;;19.46;73.43;100152.79;1622657;87;20143;-88
2021/06/19 04:49:14;;;;;;;;;;;;;;;19.53;73.47;100147.58;1626821;88;20429;-88
2021/06/19 04:51:40;;;;;;;;;;;;;;;19.57;73.52;100148.89;1633776;87;20123;-88
2021/06/19 04:54:06;;;;;;;;;;;;;;;19.63;73.62;100149.54;1640872;87;20180;-88
2021/06/19 04:56:32;;;;;;;;;;;;;;;19.68;73.58;100151.23;1654923;86;20164;-88
2021/06/19 04:59:00;;;;;;;;;;;;;;;19.74;73.33;100150.51;1654533;86;20188;-88
2021/06/19 05:01:26;;;;;;;;;;;;;;;19.80;73.47;100150.32;1652461;86;20604;-88
2021/06/19 05:03:52;;;;;;;;;;;;;;;19.87;73.43;100153.95;1654736;86;20103;-87
2021/06/19 05:06:18;;;;;;;;;;;;;;;19.94;73.57;100158.97;1646124;87;20104;-88
2021/06/19 05:08:44;;;;;;;;;;;;;;;19.99;73.68;100163.27;1654538;86;20148;-87
2021/06/19 05:11:10;;;;;;;;;;;;;;;20.06;73.58;100166.08;1654471;86;20102;-87
2021/06/19 05:13:36;;;;;;;;;;;;;;;20.12;73.81;100168.05;1654784;86;20399;-88
2021/06/19 05:16:01;;;;;;;;;;;;;;;20.17;73.96;100165.69;1649158;86;20107;-88
2021/06/19 05:18:27;;;;;;;;;;;;;;;20.24;73.81;100164.47;1635566;87;20135;-88
2021/06/19 05:20:53;;;;;;;;;;;;;;;20.30;74.11;100167.27;1626822;87;20147;-88
2021/06/19 05:23:18;;;;;;;;;;;;;;;20.37;73.80;100167.39;1626667;88;20183;-88
2021/06/19 05:25:44;;;;;;;;;;;;;;;20.43;73.77;100166.65;1627267;87;20457;-87
2021/06/19 05:28:10;;;;;;;;;;;;;;;20.49;73.53;100167.28;1647849;87;20137;-88
2021/06/19 05:30:36;;;;;;;;;;;;;;;20.56;73.65;100165.57;1654629;86;20113;-87
2021/06/19 05:33:02;;;;;;;;;;;;;;;20.64;73.29;100170.56;1654652;87;20113;-87
2021/06/19 05:35:28;;;;;;;;;;;;;;;20.70;72.91;100169.33;1654755;86;20155;-88
2021/06/19 05:37:53;;;;;;;;;;;;;;;20.79;72.75;100167.39;1654641;86;20145;-88
2021/06/19 05:40:19;;;;;;;;;;;;;;;20.84;72.43;100163.16;1654515;86;20105;-88
2021/06/19 05:42:46;;;;;;;;;;;;;;;20.92;72.43;100169.45;1657929;86;20133;-88
2021/06/19 05:45:12;;;;;;;;;;;;;;;20.99;72.47;100164.55;1654733;86;20196;-88
2021/06/19 05:47:38;;;;;;;;;;;;;;;21.06;72.10;100168.16;1654861;86;20093;-88
2021/06/19 05:50:05;;;;;;;;;;;;;;;21.13;71.98;100162.06;1654801;86;20196;-88
2021/06/19 05:52:32;;;;;;;;;;;;;;;21.20;72.04;100174.55;1632169;87;20091;-87
2021/06/19 05:54:59;;;;;;;;;;;;;;;21.28;71.83;100170.92;1626902;88;20132;-88
2021/06/19 05:57:25;;;;;;;;;;;;;;;21.36;71.86;100172.73;1649967;87;20573;-88
2021/06/19 05:59:51;;;;;;;;;;;;;;;21.42;71.77;100170.15;1654287;86;20167;-88
2021/06/19 06:02:17;;;;;;;;;;;;;;;21.49;71.55;100172.92;1647398;86;20109;-88
2021/06/19 06:04:43;;;;;;;;;;;;;;;21.57;71.33;100176.84;1655234;86;20117;-88
2021/06/19 06:07:09;;;;;;;;;;;;;;;21.64;71.27;100171.03;1652268;87;20399;-87
2021/06/19 06:09:34;;;;;;;;;;;;;;;21.71;71.20;100177.83;1654905;86;20089;-88
2021/06/19 06:12:00;;;;;;;;;;;;;;;21.78;71.02;100175.58;1635358;86;20262;-87
2021/06/19 06:14:26;;;;;;;;;;;;;;;21.84;71.32;100175.31;1626938;88;20142;-88
2021/06/19 06:16:52;;;;;;;;;;;;;;;21.93;71.33;100174.19;1633537;87;20152;-88
2021/06/19 06:19:19;;;;;;;;;;;;;;;22.00;71.23;100175.09;1641945;87;20115;-88
2021/06/19 06:21:45;;;;;;;;;;;;;;;22.08;70.98;100175.50;1645416;87;20142;-83
2021/06/19 06:24:11;;;;;;;;;;;;;;;22.14;71.02;100174.72;1654322;86;20133;-83
2021/06/19 06:26:37;;;;;;;;;;;;;;;22.20;71.11;100165.93;1654361;86;20149;-83
2021/06/19 06:29:03;;;;;;;;;;;;;;;22.28;71.13;100166.34;1654415;86;20148;-83
2021/06/19 06:31:29;;;;;;;;;;;;;;;22.36;71.20;100164.03;1654371;86;20133;-82
2021/06/19 06:33:55;;;;;;;;;;;;;;;22.45;71.08;100162.87;1646341;86;20141;-82
2021/06/19 06:36:20;;;;;;;;;;;;;;;22.52;70.96;100162.42;1654701;86;20109;-83
2021/06/19 06:38:46;;;;;;;;;;;;;;;22.60;70.90;100158.23;1642500;86;20134;-83
2021/06/19 06:41:12;;;;;;;;;;;;;;;22.68;70.70;100148.70;1654638;87;20183;-83
2021/06/19 06:43:38;;;;;;;;;;;;;;;22.78;70.45;100147.55;1654558;86;20139;-82
2021/06/19 06:46:03;;;;;;;;;;;;;;;22.84;70.27;100144.91;1646213;87;20159;-83
2021/06/19 06:48:29;;;;;;;;;;;;;;;22.96;69.74;100145.72;1626611;87;20426;-83
2021/06/19 06:50:58;;;;;;;;;;;;;;;23.03;69.24;100147.94;1628453;87;20135;-83
2021/06/19 06:53:24;;;;;;;;;;;;;;;23.09;69.66;100135.87;1626429;88;20135;-82
2021/06/19 06:55:50;;;;;;;;;;;;;;;23.18;69.86;100133.87;1648322;87;20110;-83
2021/06/19 06:58:16;;;;;;;;;;;;;;;23.26;69.33;100132.34;1649587;86;20132;-83
2021/06/19 07:00:42;;;;;;;;;;;;;;;23.33;69.57;100127.86;1626535;88;20129;-83
2021/06/19 07:03:07;;;;;;;;;;;;;;;23.40;69.30;100134.09;1626708;87;20425;-83
2021/06/19 07:05:33;;;;;;;;;;;;;;;23.50;68.68;100136.42;1628725;87;20316;-83
2021/06/19 07:08:00;;;;;;;;;;;;;;;23.57;68.77;100135.93;1654463;87;20158;-83
2021/06/19 07:10:26;;;;;;;;;;;;;;;23.66;68.10;100141.98;1652661;86;20460;-83
2021/06/19 07:12:51;;;;;;;;;;;;;;;23.74;68.32;100136.96;1654536;87;20135;-83
2021/06/19 07:15:18;;;;;;;;;;;;;;;23.80;68.50;100145.06;1654551;87;20142;-82
2021/06/19 07:17:44;;;;;;;;;;;;;;;23.90;68.88;100143.86;1646961;87;20156;-82
2021/06/19 07:20:12;;;;;;;;;;;;;;;23.99;68.39;100145.34;1654424;86;20117;-84
2021/06/19 07:22:38;;;;;;;;;;;;;;;24.08;68.31;100143.58;1654355;86;20109;-83
2021/06/19 07:25:05;;;;;;;;;;;;;;;24.18;67.87;100139.14;1654632;86;20173;-83
2021/06/19 07:27:31;;;;;;;;;;;;;;;24.28;67.31;100136.05;1654188;86;20118;-82
2021/06/19 07:29:57;;;;;;;;;;;;;;;24.37;66.53;100129.95;1654868;86;20098;-82
2021/06/19 07:32:23;;;;;;;;;;;;;;;24.44;66.83;100129.46;1644283;86;20153;-83
2021/06/19 07:34:49;;;;;;;;;;;;;;;24.53;66.68;100130.92;1654698;87;20495;-82
2021/06/19 07:37:15;;;;;;;;;;;;;;;24.63;66.71;100134.55;1653937;86;20097;-82
2021/06/19 07:39:41;;;;;;;;;;;;;;;24.73;66.17;100125.00;1654786;87;20133;-82
2021/06/19 07:42:07;;;;;;;;;;;;;;;24.83;66.27;100123.75;1652435;86;20383;-82
2021/06/19 07:44:33;;;;;;;;;;;;;;;24.92;65.73;100119.80;1654805;87;20127;-82
2021/06/19 07:46:59;;;;;;;;;;;;;;;24.98;65.49;100125.19;1654592;86;20160;-82
2021/06/19 07:49:26;;;;;;;;;;;;;;;25.06;65.79;100121.42;1654460;86;20235;-83
2021/06/19 07:51:52;;;;;;;;;;;;;;;25.15;65.57;100117.49;1653698;86;20148;-83
2021/06/19 07:54:18;;;;;;;;;;;;;;;25.24;65.58;100116.75;1647607;86;20143;-82
2021/06/19 07:56:45;;;;;;;;;;;;;;;25.34;65.75;100110.91;1636354;87;20190;-82
2021/06/19 07:59:11;;;;;;;;;;;;;;;25.43;65.31;100113.12;1653915;87;20126;-82
2021/06/19 08:01:37;;;;;;;;;;;;;;;25.52;65.05;100113.73;1632665;86;20111;-82
2021/06/19 08:04:02;;;;;;;;;;;;;;;25.62;64.99;100115.45;1648556;86;20105;-82
2021/06/19 08:06:28;;;;;;;;;;;;;;;25.71;64.58;100115.52;1665038;86;20141;-82
2021/06/19 08:08:54;;;;;;;;;;;;;;;25.79;63.71;100118.48;1648438;87;20143;-82
2021/06/19 08:11:22;;;;;;;;;;;;;;;25.88;64.39;100120.45;1627367;87;20135;-82
2021/06/19 08:13:49;;;;;;;;;;;;;;;25.96;64.18;100118.83;1637930;86;20165;-82
2021/06/19 08:16:17;;;;;;;;;;;;;;;26.06;64.04;100124.62;1652919;86;20181;-82
2021/06/19 08:18:43;;;;;;;;;;;;;;;26.17;63.41;100120.38;1653299;86;20160;-81
2021/06/19 08:21:08;;;;;;;;;;;;;;;26.27;62.96;100122.07;1654997;85;20160;-81
2021/06/19 08:23:34;;;;;;;;;;;;;;;26.36;61.93;100124.00;1644538;87;20166;-82
2021/06/19 08:26:00;;;;;;;;;;;;;;;26.46;61.38;100122.98;1643269;86;20239;-82
2021/06/19 08:28:26;;;;;;;;;;;;;;;26.56;61.65;100117.11;1640393;86;20138;-82
2021/06/19 08:30:51;;;;;;;;;;;;;;;26.66;61.74;100123.66;1640795;86;20105;-82
2021/06/19 08:33:17;;;;;;;;;;;;;;;26.74;61.31;100121.19;1644751;87;20093;-81
2021/06/19 08:35:43;;;;;;;;;;;;;;;26.84;61.16;100119.33;1645206;86;20142;-82
2021/06/19 08:38:08;;;;;;;;;;;;;;;26.94;60.56;100122.89;1638549;86;20170;-82
2021/06/19 08:40:37;;;;;;;;;;;;;;;27.03;60.33;100124.25;1641507;86;20142;-82
2021/06/19 08:43:03;;;;;;;;;;;;;;;27.12;60.00;100122.39;1640189;87;20108;-81
2021/06/19 08:45:32;;;;;;;;;;;;;;;27.20;60.55;100116.39;1644747;87;20144;-82
2021/06/19 08:48:00;;;;;;;;;;;;;;;27.28;60.33;100117.47;1643817;86;20127;-82
2021/06/19 08:50:27;;;;;;;;;;;;;;;27.37;59.39;100121.50;1645403;86;20147;-82
2021/06/19 08:52:53;;;;;;;;;;;;;;;27.46;60.09;100125.56;1642426;86;20462;-82
2021/06/19 08:55:19;;;;;;;;;;;;;;;27.52;59.38;100115.18;1645950;86;20113;-82
2021/06/19 08:57:45;;;;;;;;;;;;;;;27.60;59.69;100120.27;1646009;86;20104;-83
2021/06/19 09:00:14;;;;;;;;;;;;;;;27.69;58.69;100111.84;1642538;87;20152;-82
2021/06/19 09:02:39;;;;;;;;;;;;;;;27.79;59.42;100114.86;1647616;86;20157;-82
2021/06/19 09:05:12;;;;;;;;;;;;;;;27.93;59.26;100119.56;1641349;87;20135;-81
2021/06/19 09:07:46;;;;;;;;;;;;;;;28.02;57.88;100112.23;1649776;87;20112;-82
2021/06/19 09:10:32;;;;;;;;;;;;;;;28.10;58.06;100112.45;1638958;86;20486;-82
2021/06/19 09:13:02;;;;;;;;;;;;;;;28.18;57.34;100105.86;1644315;87;20218;-84
2021/06/19 09:15:30;;;;;;;;;;;;;;;28.25;57.81;100113.36;1640871;87;20143;-82
2021/06/19 09:18:04;;;;;;;;;;;;;;;28.35;57.81;100110.90;1642523;86;20139;-81
2021/06/19 09:20:52;;;;;;;;;;;;;;;28.49;58.13;100114.25;1638810;86;20111;-81
2021/06/19 09:23:36;;;;;;;;;;;;;;;28.60;57.39;100112.09;1642466;86;20170;-82
2021/06/19 09:26:14;;;;;;;;;;;;;;;28.69;56.74;100109.84;1642354;87;20133;-82
2021/06/19 09:29:02;;;;;;;;;;;;;;;28.77;57.02;100113.57;1655042;85;20435;-81
2021/06/19 09:31:50;;;;;;;;;;;;;;;28.86;56.49;100114.87;1640917;87;20148;-82
2021/06/19 09:34:19;;;;;;;;;;;;;;;28.96;56.19;100102.06;1646407;87;20456;-81
2021/06/19 09:36:49;;;;;;;;;;;;;;;29.03;56.41;100101.43;1651991;85;20442;-81
2021/06/19 09:39:17;;;;;;;;;;;;;;;29.13;55.30;100103.00;1654384;85;20126;-81
2021/06/19 09:41:46;;;;;;;;;;;;;;;29.20;54.85;100099.62;1661482;85;20442;-82
2021/06/19 09:44:12;;;;;;;;;;;;;;;29.28;55.20;100103.03;1666249;85;20449;-82
2021/06/19 09:46:38;;;;;;;;;;;;;;;29.34;55.41;100102.07;1665220;85;20160;-80
2021/06/19 09:49:15;;;;;;;;;;;;;;;29.43;54.91;100097.38;1660682;84;20135;-81
2021/06/19 09:51:47;;;;;;;;;;;;;;;29.55;53.92;100097.86;1651603;85;20136;-81
2021/06/19 09:54:13;;;;;;;;;;;;;;;29.63;55.48;100094.80;1643125;85;20160;-81
2021/06/19 09:56:58;;;;;;;;;;;;;;;29.74;54.21;100095.28;1647831;85;20457;-81
2021/06/19 09:59:30;;;;;;;;;;;;;;;29.88;54.50;100097.19;1641292;86;20288;-81
2021/06/19 10:01:58;;;;;;;;;;;;;;;29.96;53.72;100091.34;1646619;85;20191;-82
2021/06/19 10:04:29;;;;;;;;;;;;;;;30.02;52.97;100089.00;1641935;87;20146;-82
2021/06/19 10:06:56;;;;;;;;;;;;;;;30.10;52.42;100093.20;1646084;86;20166;-80
2021/06/19 10:09:22;;;;;;;;;;;;;;;30.17;52.51;100083.53;1651282;85;20643;-81
2021/06/19 10:11:55;;;;;;;;;;;;;;;30.23;51.98;100086.66;1656096;85;20136;-82
2021/06/19 10:14:23;;;;;;;;;;;;;;;30.30;51.13;100084.59;1643013;85;20131;-81
2021/06/19 10:16:51;;;;;;;;;;;;;;;30.38;51.03;100078.22;1630010;87;20163;-84
2021/06/19 10:19:19;;;;;;;;;;;;;;;30.46;49.47;100081.59;1648474;86;20140;-86
2021/06/19 10:21:46;;;;;;;;;;;;;;;30.48;50.42;100081.63;1651503;85;20115;-85
2021/06/19 10:24:13;;;;;;;;;;;;;;;30.56;49.86;100083.11;1644005;87;20132;-85
2021/06/19 10:26:40;;;;;;;;;;;;;;;30.65;50.41;100075.34;1640405;86;20139;-85
2021/06/19 10:29:06;;;;;;;;;;;;;;;30.71;48.20;100076.54;1643860;86;20134;-85
2021/06/19 10:31:50;;;;;;;;;;;;;;;30.79;47.87;100082.11;1640831;87;20133;-84
2021/06/19 10:34:23;;;;;;;;;;;;;;;30.86;48.09;100075.95;1617331;88;20150;-84
2021/06/19 10:37:03;;;;;;;;;;;;;;;30.92;47.85;100070.86;1610178;87;20170;-84
2021/06/19 10:39:42;;;;;;;;;;;;;;;31.02;47.23;100068.27;1630348;87;20153;-83
2021/06/19 10:42:26;;;;;;;;;;;;;;;31.14;46.70;100064.62;1652991;86;20149;-83
2021/06/19 10:45:01;;;;;;;;;;;;;;;31.22;45.74;100060.07;1650202;87;20133;-85
2021/06/19 10:47:32;;;;;;;;;;;;;;;31.26;46.13;100061.20;1653762;86;20141;-84
2021/06/19 10:49:59;;;;;;;;;;;;;;;31.33;45.93;100060.52;1653124;85;20135;-85
2021/06/19 10:52:31;;;;;;;;;;;;;;;31.41;45.91;100051.88;1664703;85;20464;-84
2021/06/19 10:55:14;;;;;;;;;;;;;;;31.51;44.47;100056.63;1681083;85;21079;-85
2021/06/19 10:57:46;;;;;;;;;;;;;;;31.57;44.72;100047.97;1659896;85;20482;-84
2021/06/19 11:00:35;;;;;;;;;;;;;;;31.65;43.38;100047.49;1652120;85;20117;-85
2021/06/19 11:03:04;;;;;;;;;;;;;;;31.70;42.42;100047.56;1672478;85;20141;-81
2021/06/19 11:05:50;;;;;;;;;;;;;;;31.78;42.55;100047.08;1653697;85;20186;-83
2021/06/19 11:08:16;;;;;;;;;;;;;;;31.85;42.77;100037.32;1656376;85;20137;-85
2021/06/19 11:10:53;;;;;;;;;;;;;;;31.91;42.01;100036.32;1655171;85;20311;-82
2021/06/19 11:13:33;;;;;;;;;;;;;;;31.96;41.74;100037.20;1652276;85;20180;-84
2021/06/19 11:16:04;;;;;;;;;;;;;;;32.00;40.48;100030.67;1669454;85;20167;-83
2021/06/19 11:18:52;;;;;;;;;;;;;;;32.00;41.12;100027.95;1647463;86;20905;-85
2021/06/19 11:21:32;;;;;;;;;;;;;;;32.05;40.87;100027.16;1641365;86;20127;-84
2021/06/19 11:24:02;;;;;;;;;;;;;;;32.13;40.49;100028.88;1651014;87;20511;-84
2021/06/19 11:26:54;;;;;;;;;;;;;;;32.22;40.31;100036.86;1657862;85;20197;-88
2021/06/19 11:29:38;;;;;;;;;;;;;;;32.28;40.10;100031.42;1666040;85;20148;-85
2021/06/19 11:32:32;;;;;;;;;;;;;;;32.32;40.06;100031.20;1666990;85;20198;-84
2021/06/19 11:35:04;;;;;;;;;;;;;;;32.38;40.88;100028.25;1680805;85;20173;-84
2021/06/19 11:37:53;;;;;;;;;;;;;;;32.43;41.06;100027.48;1661587;85;20165;-85
2021/06/19 11:40:29;;;;;;;;;;;;;;;32.51;40.36;100018.81;1653842;87;20262;-84
2021/06/19 11:42:55;;;;;;;;;;;;;;;32.61;39.07;100027.58;1652908;86;20169;-87
2021/06/19 11:45:21;;;;;;;;;;;;;;;32.63;39.00;100013.95;1653760;86;20573;-84
2021/06/19 11:48:05;;;;;;;;;;;;;;;32.68;39.71;100013.17;1653630;86;20129;-85
2021/06/19 11:50:34;;;;;;;;;;;;;;;32.77;39.26;100008.00;1653544;87;20145;-85
2021/06/19 11:53:34;;;;;;;;;;;;;;;32.87;38.33;100003.95;1653537;86;20148;-84
2021/06/19 11:56:12;;;;;;;;;;;;;;;32.89;39.01;100009.44;1653204;86;20169;-84
2021/06/19 11:58:51;;;;;;;;;;;;;;;32.77;38.33;100004.72;1653231;86;21010;-85
2021/06/19 12:01:38;;;;;;;;;;;;;;;32.72;38.84;100001.98;1653219;86;20145;-83
2021/06/19 12:04:05;;;;;;;;;;;;;;;32.73;38.27;100003.62;1653279;87;20282;-85
2021/06/19 12:06:35;;;;;;;;;;;;;;;32.66;38.14;100008.50;1662598;86;20169;-85
2021/06/19 12:09:02;;;;;;;;;;;;;;;32.65;38.67;99997.31;1663722;85;20603;-85
2021/06/19 12:11:33;;;;;;;;;;;;;;;32.73;39.43;99994.61;1652732;87;20154;-84
2021/06/19 12:13:59;;;;;;;;;;;;;;;32.82;39.51;99992.47;1652977;87;20183;-85
2021/06/19 12:16:32;;;;;;;;;;;;;;;32.91;38.71;99987.33;1644168;86;20123;-84
2021/06/19 12:19:03;;;;;;;;;;;;;;;32.95;38.90;99985.69;1625359;88;20135;-84
2021/06/19 12:21:33;;;;;;;;;;;;;;;32.93;38.06;99982.39;1626077;88;20138;-84
2021/06/19 12:23:59;;;;;;;;;;;;;;;32.91;38.84;99981.86;1635749;87;20134;-84
2021/06/19 12:26:25;;;;;;;;;;;;;;;32.94;39.43;99977.23;1653765;85;20137;-83
2021/06/19 12:28:51;;;;;;;;;;;;;;;32.95;38.73;99979.41;1666267;85;20145;-83
2021/06/19 12:31:19;;;;;;;;;;;;;;;32.96;37.13;99981.89;1651711;85;20153;-83
2021/06/19 12:33:49;;;;;;;;;;;;;;;33.00;37.88;99983.55;1652608;87;20153;-83
2021/06/19 12:36:14;;;;;;;;;;;;;;;33.03;36.38;99981.09;1652414;86;20157;-84
2021/06/19 12:38:44;;;;;;;;;;;;;;;33.04;37.06;99973.19;1652598;87;20133;-84
2021/06/19 12:41:10;;;;;;;;;;;;;;;33.07;37.78;99974.55;1651402;86;20159;-83
2021/06/19 12:43:39;;;;;;;;;;;;;;;33.14;37.46;99965.57;1656406;85;20168;-83
2021/06/19 12:46:07;;;;;;;;;;;;;;;33.15;37.27;99968.57;1650204;85;20141;-85